Time;durP1;ratioP1;P1;durP2;ratioP2;P2;SDS_P1;SDS_P2;PMS_P1;PMS_P2;Temp;Humidity;BMP_temperature;BMP_pressure;BME280_temperature;BME280_humidity;BME280_pressure;Samples;Min_cycle;Max_cycle;Signal;HPM_P1;HPM_P2
2023/06/27 00:00:37;;;;;;;11.02;8.45;;;25.90;68.60;;;;;;5052662;28;20040;-75
2023/06/27 00:03:03;;;;;;;15.40;9.25;;;25.90;68.80;;;;;;5051534;28;20558;-75
2023/06/27 00:05:30;;;;;;;9.82;8.10;;;25.80;68.60;;;;;;5052593;28;20050;-75
2023/06/27 00:07:56;;;;;;;14.00;8.15;;;25.80;68.70;;;;;;5052150;28;20025;-75
2023/06/27 00:10:22;;;;;;;11.95;7.32;;;25.80;68.70;;;;;;5052205;28;20036;-73
2023/06/27 00:12:47;;;;;;;11.93;8.20;;;25.70;68.30;;;;;;5052723;28;20017;-75
2023/06/27 00:15:13;;;;;;;8.88;7.97;;;25.70;68.20;;;;;;5052629;28;20044;-75
2023/06/27 00:17:40;;;;;;;12.95;7.55;;;25.70;68.40;;;;;;5052420;28;20045;-74
2023/06/27 00:20:10;;;;;;;10.32;8.13;;;25.70;68.40;;;;;;5052448;28;20121;-74
2023/06/27 00:22:39;;;;;;;12.18;8.10;;;25.70;68.20;;;;;;5052285;28;20017;-75
2023/06/27 00:25:12;;;;;;;10.18;7.45;;;25.70;68.00;;;;;;5052418;28;20067;-75
2023/06/27 00:27:38;;;;;;;10.55;7.30;;;25.70;67.90;;;;;;5052561;28;20017;-76
2023/06/27 00:30:04;;;;;;;7.78;7.03;;;25.60;67.90;;;;;;5052585;28;20389;-75
2023/06/27 00:32:30;;;;;;;9.07;7.07;;;25.60;67.80;;;;;;5052349;28;20029;-75
2023/06/27 00:34:56;;;;;;;9.40;7.20;;;25.60;67.90;;;;;;5055108;28;20059;-75
2023/06/27 00:37:22;;;;;;;14.15;8.57;;;25.60;68.00;;;;;;5056166;28;20048;-75
2023/06/27 00:39:47;;;;;;;10.23;7.80;;;25.60;68.00;;;;;;5056023;28;20036;-75
2023/06/27 00:42:13;;;;;;;11.85;7.70;;;25.50;68.00;;;;;;5056001;28;20049;-75
2023/06/27 00:44:39;;;;;;;9.27;7.57;;;25.50;67.90;;;;;;5055838;28;20025;-74
2023/06/27 00:47:05;;;;;;;12.90;7.40;;;25.50;67.80;;;;;;5056013;28;20024;-75
2023/06/27 00:49:32;;;;;;;11.73;8.45;;;25.50;68.10;;;;;;5055980;28;20033;-75
2023/06/27 00:51:58;;;;;;;9.75;7.65;;;25.50;68.40;;;;;;5056009;28;20017;-74
2023/06/27 00:54:23;;;;;;;8.70;7.80;;;25.40;68.40;;;;;;5055920;28;20036;-75
2023/06/27 00:56:53;;;;;;;11.68;7.90;;;25.40;68.50;;;;;;5055573;28;20013;-75
2023/06/27 00:59:19;;;;;;;14.55;7.30;;;25.40;68.70;;;;;;5052821;28;20029;-75
2023/06/27 01:01:45;;;;;;;15.45;7.97;;;25.40;68.90;;;;;;5052954;28;20025;-75
2023/06/27 01:04:12;;;;;;;16.92;7.35;;;25.40;69.10;;;;;;5053606;28;20029;-75
2023/06/27 01:06:56;;;;;;;11.63;8.27;;;25.30;69.00;;;;;;5055254;28;20424;-75
2023/06/27 01:09:48;;;;;;;12.27;7.93;;;25.30;68.90;;;;;;5055334;28;20045;-74
2023/06/27 01:12:26;;;;;;;15.63;9.30;;;25.30;69.00;;;;;;5055637;28;20451;-74
2023/06/27 01:14:56;;;;;;;10.68;8.32;;;25.20;69.10;;;;;;5055193;28;20101;-74
2023/06/27 01:17:24;;;;;;;11.98;7.90;;;25.20;69.30;;;;;;5055596;28;20025;-75
2023/06/27 01:19:52;;;;;;;11.25;7.95;;;25.20;69.30;;;;;;5055531;28;20017;-75
2023/06/27 01:22:28;;;;;;;8.52;7.63;;;25.20;69.50;;;;;;5055009;28;20053;-75
2023/06/27 01:24:54;;;;;;;10.73;8.10;;;25.20;69.50;;;;;;5055353;28;20021;-75
2023/06/27 01:27:20;;;;;;;11.98;8.25;;;25.20;69.50;;;;;;5055201;28;20520;-75
2023/06/27 01:29:46;;;;;;;9.77;8.27;;;25.20;69.60;;;;;;5054794;28;20040;-74
2023/06/27 01:32:24;;;;;;;14.35;8.10;;;25.20;69.70;;;;;;5055102;28;20021;-74
2023/06/27 01:35:08;;;;;;;11.27;8.40;;;25.10;69.80;;;;;;5038367;28;20456;-75
2023/06/27 01:37:39;;;;;;;11.75;8.40;;;25.10;69.80;;;;;;5054886;28;20378;-75
2023/06/27 01:40:14;;;;;;;15.30;7.30;;;25.10;70.10;;;;;;5054779;28;20028;-75
2023/06/27 01:42:42;;;;;;;9.30;8.32;;;25.00;69.90;;;;;;5052983;28;20021;-74
2023/06/27 01:45:14;;;;;;;10.50;7.47;;;25.00;69.90;;;;;;5053922;28;20029;-75
2023/06/27 01:47:43;;;;;;;12.80;7.95;;;25.00;70.10;;;;;;5054817;28;20485;-75
2023/06/27 01:50:11;;;;;;;13.38;8.40;;;25.00;70.40;;;;;;5054733;28;20028;-74
2023/06/27 01:52:36;;;;;;;13.18;7.78;;;25.00;70.50;;;;;;5054794;28;20021;-74
2023/06/27 01:55:02;;;;;;;10.35;8.32;;;24.90;70.20;;;;;;5054587;28;20377;-75
2023/06/27 01:57:28;;;;;;;11.50;7.78;;;24.90;70.50;;;;;;5054445;28;20381;-75
2023/06/27 01:59:54;;;;;;;9.95;8.10;;;24.90;70.10;;;;;;5054577;28;20029;-75
2023/06/27 02:02:20;;;;;;;14.27;8.07;;;24.90;69.30;;;;;;5054347;28;20524;-75
2023/06/27 02:04:46;;;;;;;8.45;7.65;;;24.90;69.50;;;;;;5054404;28;20017;-75
2023/06/27 02:07:12;;;;;;;13.65;8.25;;;24.90;69.40;;;;;;5054515;28;20481;-75
2023/06/27 02:09:38;;;;;;;12.63;8.85;;;24.90;69.30;;;;;;5054265;28;20158;-74
2023/06/27 02:12:04;;;;;;;11.45;7.80;;;24.90;69.30;;;;;;5054203;28;20059;-74
2023/06/27 02:14:32;;;;;;;12.27;8.38;;;24.80;69.10;;;;;;5054308;28;20027;-75
2023/06/27 02:16:58;;;;;;;10.10;8.55;;;24.80;68.90;;;;;;5054133;28;20032;-74
2023/06/27 02:19:24;;;;;;;11.40;7.32;;;24.80;68.80;;;;;;5052968;28;20103;-75
2023/06/27 02:21:50;;;;;;;9.15;7.45;;;24.80;69.00;;;;;;5054062;28;20461;-75
2023/06/27 02:24:16;;;;;;;13.50;8.10;;;24.80;69.10;;;;;;5054187;28;20074;-75
2023/06/27 02:26:43;;;;;;;10.05;7.45;;;24.80;68.90;;;;;;5054065;28;20477;-75
2023/06/27 02:29:09;;;;;;;11.98;8.07;;;24.80;68.80;;;;;;5053644;28;20033;-74
2023/06/27 02:31:35;;;;;;;11.02;7.80;;;24.80;69.10;;;;;;5053903;28;20103;-75
2023/06/27 02:34:01;;;;;;;13.07;8.32;;;24.70;69.50;;;;;;5053766;28;20104;-75
2023/06/27 02:36:27;;;;;;;12.82;8.15;;;24.70;69.90;;;;;;5053555;28;20069;-76
2023/06/27 02:38:58;;;;;;;9.95;7.75;;;24.70;70.30;;;;;;5053930;28;20060;-75
2023/06/27 02:41:24;;;;;;;9.98;7.88;;;24.70;70.60;;;;;;5053790;28;20048;-75
2023/06/27 02:43:50;;;;;;;10.52;7.75;;;24.70;70.80;;;;;;5053659;28;20064;-74
2023/06/27 02:46:16;;;;;;;13.02;7.95;;;24.70;71.00;;;;;;5053928;28;20059;-75
2023/06/27 02:48:42;;;;;;;11.57;8.32;;;24.60;71.10;;;;;;5053554;28;20041;-75
2023/06/27 02:51:08;;;;;;;15.32;8.23;;;24.60;71.00;;;;;;5053757;28;20025;-75
2023/06/27 02:53:34;;;;;;;9.13;8.13;;;24.50;71.00;;;;;;5053644;28;20040;-74
2023/06/27 02:56:03;;;;;;;9.13;8.18;;;24.50;70.90;;;;;;5053467;28;20017;-75
2023/06/27 02:58:29;;;;;;;18.92;9.02;;;24.50;70.80;;;;;;5053026;28;20103;-75
2023/06/27 03:00:55;;;;;;;14.07;8.98;;;24.50;70.90;;;;;;5053548;28;20021;-75
2023/06/27 03:03:21;;;;;;;13.25;8.82;;;24.50;71.00;;;;;;5053341;28;20537;-74
2023/06/27 03:05:46;;;;;;;12.88;9.30;;;24.40;71.20;;;;;;5053390;28;20025;-75
2023/06/27 03:08:12;;;;;;;13.15;8.48;;;24.40;71.40;;;;;;5053092;28;20037;-74
2023/06/27 03:10:38;;;;;;;16.52;8.70;;;24.40;71.70;;;;;;5053535;28;20428;-74
2023/06/27 03:13:04;;;;;;;11.43;8.98;;;24.40;71.80;;;;;;5035535;28;20049;-74
2023/06/27 03:15:29;;;;;;;10.68;8.75;;;24.30;72.00;;;;;;5053496;28;20041;-75
2023/06/27 03:17:55;;;;;;;13.35;8.48;;;24.30;72.30;;;;;;5052958;28;20385;-74
2023/06/27 03:20:21;;;;;;;12.10;8.60;;;24.30;72.60;;;;;;5052887;28;20017;-75
2023/06/27 03:22:48;;;;;;;12.70;8.82;;;24.30;72.60;;;;;;5053058;28;20055;-74
2023/06/27 03:25:13;;;;;;;10.90;9.00;;;24.30;72.80;;;;;;5053100;28;20393;-75
2023/06/27 03:27:39;;;;;;;13.35;8.98;;;24.30;72.90;;;;;;5053166;28;20032;-74
2023/06/27 03:30:07;;;;;;;16.70;8.80;;;24.20;72.80;;;;;;5052821;28;20033;-75
2023/06/27 03:32:33;;;;;;;10.70;9.48;;;24.20;73.00;;;;;;5051535;28;20021;-74
2023/06/27 03:34:59;;;;;;;11.00;8.65;;;24.20;73.10;;;;;;5052824;28;20055;-74
2023/06/27 03:37:25;;;;;;;11.02;8.68;;;24.20;73.40;;;;;;5052729;28;20108;-75
2023/06/27 03:39:51;;;;;;;15.40;8.20;;;24.30;73.50;;;;;;5052861;28;20060;-74
2023/06/27 03:42:17;;;;;;;19.55;9.13;;;24.30;73.60;;;;;;5052930;28;20021;-74
2023/06/27 03:44:43;;;;;;;18.50;9.10;;;24.20;73.20;;;;;;5052706;28;20021;-75
2023/06/27 03:47:08;;;;;;;13.65;8.68;;;24.20;73.20;;;;;;5052340;28;20036;-75
2023/06/27 03:49:34;;;;;;;22.08;9.20;;;24.20;73.40;;;;;;5052547;28;20389;-74
2023/06/27 03:52:00;;;;;;;20.38;9.55;;;24.20;73.20;;;;;;5053070;28;20025;-73
2023/06/27 03:54:25;;;;;;;17.08;9.10;;;24.20;73.10;;;;;;5052918;28;20028;-75
2023/06/27 03:56:51;;;;;;;17.05;8.60;;;24.20;73.10;;;;;;5052682;28;20106;-74
2023/06/27 03:59:17;;;;;;;11.07;9.13;;;24.20;73.40;;;;;;5052019;28;20092;-74
2023/06/27 04:01:43;;;;;;;16.25;9.00;;;24.20;73.40;;;;;;5052704;28;20064;-74
2023/06/27 04:04:08;;;;;;;18.90;9.20;;;24.20;73.10;;;;;;5052729;28;20025;-74
2023/06/27 04:06:34;;;;;;;10.13;8.68;;;24.20;72.80;;;;;;5052632;28;20029;-74
2023/06/27 04:09:03;;;;;;;13.63;9.05;;;24.20;72.60;;;;;;5054046;28;20112;-73
2023/06/27 04:11:29;;;;;;;20.38;9.10;;;24.10;72.50;;;;;;5056720;28;20028;-74
2023/06/27 04:13:56;;;;;;;17.50;8.98;;;24.10;72.80;;;;;;5056610;28;20029;-73
2023/06/27 04:16:22;;;;;;;19.70;9.57;;;24.10;73.00;;;;;;5056593;28;20033;-74
2023/06/27 04:18:48;;;;;;;11.75;8.07;;;24.10;73.10;;;;;;5056523;28;20024;-74
2023/06/27 04:21:14;;;;;;;18.50;9.23;;;24.10;73.20;;;;;;5056564;28;20097;-74
2023/06/27 04:23:39;;;;;;;16.13;9.10;;;24.10;73.30;;;;;;5056609;28;20017;-74
2023/06/27 04:26:07;;;;;;;17.38;9.50;;;24.10;73.50;;;;;;5056281;28;20052;-74
2023/06/27 04:28:36;;;;;;;11.50;8.52;;;24.00;73.40;;;;;;5056190;28;20029;-74
2023/06/27 04:31:02;;;;;;;16.90;9.30;;;24.00;73.50;;;;;;5056259;28;20477;-74
2023/06/27 04:33:28;;;;;;;20.95;9.07;;;24.00;73.60;;;;;;5056367;28;20116;-74
2023/06/27 04:36:00;;;;;;;16.55;8.77;;;24.00;73.70;;;;;;5056370;28;20417;-74
2023/06/27 04:38:30;;;;;;;14.82;9.10;;;24.00;73.90;;;;;;5055894;28;20128;-75
2023/06/27 04:40:56;;;;;;;14.02;8.93;;;24.00;74.10;;;;;;5056140;28;20021;-75
2023/06/27 04:43:22;;;;;;;14.48;9.35;;;24.00;74.50;;;;;;5056024;28;20561;-74
2023/06/27 04:45:48;;;;;;;9.90;8.82;;;24.00;75.00;;;;;;5055883;28;20021;-74
2023/06/27 04:48:14;;;;;;;14.98;9.13;;;24.00;75.20;;;;;;5055994;28;20037;-74
2023/06/27 04:50:40;;;;;;;14.30;9.15;;;24.10;75.20;;;;;;5056124;28;20025;-73
2023/06/27 04:53:05;;;;;;;10.65;9.00;;;24.10;74.80;;;;;;5055601;28;20025;-73
2023/06/27 04:55:32;;;;;;;16.05;9.00;;;24.20;74.80;;;;;;5055386;28;20032;-74
2023/06/27 04:57:57;;;;;;;16.23;9.02;;;24.20;74.70;;;;;;5055485;28;20032;-74
2023/06/27 05:00:24;;;;;;;14.77;8.60;;;24.20;74.40;;;;;;5055539;28;20025;-73
2023/06/27 05:02:50;;;;;;;17.38;9.02;;;24.20;73.70;;;;;;5055617;28;20029;-74
2023/06/27 05:05:16;;;;;;;18.73;9.02;;;24.20;73.20;;;;;;5055719;28;20023;-73
2023/06/27 05:07:42;;;;;;;22.85;9.60;;;24.30;72.80;;;;;;5055221;28;20040;-72
2023/06/27 05:10:08;;;;;;;18.63;8.30;;;24.30;72.60;;;;;;5055113;28;20037;-75
2023/06/27 05:12:34;;;;;;;20.67;9.93;;;24.30;72.60;;;;;;5055489;28;20014;-75
2023/06/27 05:14:59;;;;;;;11.80;9.10;;;24.30;72.50;;;;;;5055715;28;20048;-75
2023/06/27 05:17:25;;;;;;;15.60;8.70;;;24.30;72.30;;;;;;5055351;28;20021;-75
2023/06/27 05:19:51;;;;;;;14.77;8.80;;;24.30;72.20;;;;;;5053262;28;20033;-75
2023/06/27 05:22:17;;;;;;;9.30;8.25;;;24.30;72.00;;;;;;5054893;28;20021;-75
2023/06/27 05:24:42;;;;;;;11.85;8.35;;;24.30;71.80;;;;;;5055204;28;20025;-75
2023/06/27 05:27:08;;;;;;;11.52;8.32;;;24.40;71.60;;;;;;5055187;28;20028;-75
2023/06/27 05:29:34;;;;;;;10.50;8.15;;;24.40;71.40;;;;;;5055023;28;20035;-77
2023/06/27 05:31:59;;;;;;;13.10;8.13;;;24.40;71.30;;;;;;5054902;28;20100;-78
2023/06/27 05:34:25;;;;;;;15.85;8.52;;;24.50;71.20;;;;;;5054325;28;20028;-77
2023/06/27 05:36:51;;;;;;;15.23;8.27;;;24.50;70.90;;;;;;5053477;28;20079;-77
2023/06/27 05:39:17;;;;;;;13.25;7.72;;;24.50;70.70;;;;;;5054522;28;20075;-77
2023/06/27 05:41:42;;;;;;;11.35;8.18;;;24.50;70.70;;;;;;5054444;28;20051;-75
2023/06/27 05:44:08;;;;;;;14.00;7.80;;;24.50;70.90;;;;;;5054598;28;20021;-77
2023/06/27 05:46:39;;;;;;;11.98;8.68;;;24.60;71.00;;;;;;5052337;28;20044;-73
2023/06/27 05:49:06;;;;;;;37.22;8.95;;;24.60;70.90;;;;;;5041797;28;20037;-71
2023/06/27 05:51:31;;;;;;;15.00;8.93;;;24.60;71.00;;;;;;5063830;28;20024;-70
2023/06/27 05:53:57;;;;;;;11.05;8.15;;;24.70;71.20;;;;;;5067688;28;20037;-76
2023/06/27 05:56:23;;;;;;;12.95;8.20;;;24.70;71.10;;;;;;5053810;28;20021;-75
2023/06/27 05:58:48;;;;;;;13.07;7.60;;;24.70;71.20;;;;;;5053923;28;20033;-76
2023/06/27 06:01:14;;;;;;;12.43;7.68;;;24.70;71.20;;;;;;5053988;28;20025;-74
2023/06/27 06:03:40;;;;;;;12.73;8.40;;;24.80;71.30;;;;;;5053683;28;20035;-73
2023/06/27 06:06:11;;;;;;;12.63;7.72;;;24.80;71.40;;;;;;5054000;28;20469;-70
2023/06/27 06:08:37;;;;;;;9.85;7.68;;;24.80;71.70;;;;;;5053810;28;20037;-76
2023/06/27 06:11:03;;;;;;;19.10;9.75;;;24.80;72.30;;;;;;5054473;28;20090;-74
2023/06/27 06:13:28;;;;;;;18.17;8.82;;;24.90;72.80;;;;;;5054153;28;20448;-74
2023/06/27 06:15:54;;;;;;;11.80;7.95;;;24.90;73.30;;;;;;5053794;28;20017;-75
2023/06/27 06:18:20;;;;;;;15.23;9.15;;;24.90;73.40;;;;;;5053733;28;20025;-75
2023/06/27 06:20:46;;;;;;;14.25;8.52;;;24.90;73.20;;;;;;5053628;28;20230;-77
2023/06/27 06:23:11;;;;;;;11.52;8.60;;;25.00;73.20;;;;;;5052488;28;20039;-76
2023/06/27 06:25:37;;;;;;;12.23;8.10;;;25.00;73.40;;;;;;5053389;28;20021;-74
2023/06/27 06:28:04;;;;;;;13.68;7.65;;;25.00;73.40;;;;;;5053234;28;20025;-69
2023/06/27 06:30:29;;;;;;;13.05;8.80;;;25.00;73.10;;;;;;5053650;28;20031;-72
2023/06/27 06:32:55;;;;;;;10.45;7.57;;;25.10;72.90;;;;;;5053024;28;20025;-72
2023/06/27 06:35:21;;;;;;;13.80;8.88;;;25.10;72.70;;;;;;5053370;28;20127;-77
2023/06/27 06:37:46;;;;;;;19.10;8.85;;;25.10;72.50;;;;;;5053311;28;20105;-76
2023/06/27 06:40:12;;;;;;;15.02;8.27;;;25.20;72.60;;;;;;5052892;28;20423;-73
2023/06/27 06:42:38;;;;;;;13.38;7.93;;;25.20;72.60;;;;;;5053215;28;20029;-76
2023/06/27 06:45:04;;;;;;;13.70;8.50;;;25.30;72.30;;;;;;5053150;28;20043;-77
2023/06/27 06:47:30;;;;;;;19.05;8.20;;;25.30;71.70;;;;;;5053285;28;20021;-76
2023/06/27 06:49:56;;;;;;;10.55;8.25;;;25.30;72.00;;;;;;5053232;28;20051;-76
2023/06/27 06:52:21;;;;;;;11.20;8.55;;;25.40;72.00;;;;;;5053237;28;20051;-74
2023/06/27 06:54:47;;;;;;;22.25;10.70;;;25.40;72.00;;;;;;5052949;28;20119;-77
2023/06/27 06:57:13;;;;;;;14.65;9.70;;;25.40;71.50;;;;;;5052814;28;20029;-77
2023/06/27 06:59:39;;;;;;;14.25;9.10;;;25.50;71.50;;;;;;5053112;28;20044;-76
2023/06/27 07:02:05;;;;;;;8.98;7.85;;;25.60;71.70;;;;;;5052799;28;20025;-72
2023/06/27 07:04:31;;;;;;;10.77;8.02;;;25.60;71.50;;;;;;5052926;28;20433;-71
2023/06/27 07:06:57;;;;;;;15.07;8.48;;;25.60;71.40;;;;;;5052268;28;20025;-71
2023/06/27 07:09:22;;;;;;;11.20;8.55;;;25.60;71.20;;;;;;5052508;28;20485;-76
2023/06/27 07:11:50;;;;;;;15.23;8.48;;;25.70;70.80;;;;;;5052976;28;20048;-75
2023/06/27 07:14:18;;;;;;;11.95;7.38;;;25.70;71.10;;;;;;5052607;28;20021;-77
2023/06/27 07:16:44;;;;;;;9.95;7.97;;;25.70;70.60;;;;;;5053320;28;20021;-78
2023/06/27 07:19:10;;;;;;;10.25;7.65;;;25.70;70.00;;;;;;5053218;28;20056;-77
2023/06/27 07:21:37;;;;;;;11.82;8.65;;;25.70;70.00;;;;;;5052934;28;20039;-77
2023/06/27 07:24:03;;;;;;;17.10;7.90;;;25.70;70.70;;;;;;5052821;28;20061;-77
2023/06/27 07:26:29;;;;;;;16.33;9.45;;;25.70;71.00;;;;;;5053171;28;20461;-77
2023/06/27 07:28:55;;;;;;;16.60;8.15;;;25.70;71.00;;;;;;5053115;28;20037;-77
2023/06/27 07:31:21;;;;;;;14.77;8.52;;;25.60;70.30;;;;;;5052963;28;20021;-78
2023/06/27 07:33:47;;;;;;;14.18;9.10;;;25.70;70.20;;;;;;5052720;28;20029;-77
2023/06/27 07:36:13;;;;;;;25.35;9.70;;;25.70;70.50;;;;;;5068666;22;20053;-67
2023/06/27 07:38:38;;;;;;;27.25;10.52;;;25.70;71.30;;;;;;5053044;28;20037;-65
2023/06/27 07:41:04;;;;;;;34.28;10.95;;;25.80;72.30;;;;;;5051645;28;20057;-67
2023/06/27 07:43:29;;;;;;;15.05;9.20;;;25.80;72.60;;;;;;5051966;28;20481;-65
2023/06/27 07:45:55;;;;;;;31.30;10.68;;;25.80;72.60;;;;;;5052997;28;20491;-66
2023/06/27 07:48:21;;;;;;;18.77;8.95;;;25.90;73.10;;;;;;5052742;28;20033;-65
2023/06/27 07:50:46;;;;;;;13.02;9.07;;;25.90;73.30;;;;;;5052891;28;20396;-65
2023/06/27 07:53:12;;;;;;;13.80;8.73;;;25.90;73.30;;;;;;5052612;28;20021;-68
2023/06/27 07:55:38;;;;;;;15.02;8.77;;;25.90;73.00;;;;;;5052681;28;20066;-68
2023/06/27 07:58:03;;;;;;;14.30;8.43;;;26.00;72.90;;;;;;5052571;28;20108;-65
2023/06/27 08:00:29;;;;;;;23.10;9.00;;;26.10;72.70;;;;;;5052501;28;20029;-65
2023/06/27 08:02:55;;;;;;;24.13;8.80;;;26.10;72.90;;;;;;5053295;28;20052;-67
2023/06/27 08:05:21;;;;;;;17.20;8.57;;;26.20;73.20;;;;;;5052672;28;20028;-67
2023/06/27 08:07:46;;;;;;;13.18;8.55;;;26.20;73.00;;;;;;5052286;28;20021;-65
2023/06/27 08:10:12;;;;;;;14.02;8.75;;;26.20;72.20;;;;;;5052676;28;20041;-65
2023/06/27 08:12:38;;;;;;;12.52;8.38;;;26.20;71.40;;;;;;5052594;28;20017;-65
2023/06/27 08:15:05;;;;;;;12.35;7.68;;;26.20;71.20;;;;;;5052328;28;20033;-65
2023/06/27 08:17:30;;;;;;;10.13;8.45;;;26.20;70.90;;;;;;5052287;28;20025;-65
2023/06/27 08:19:56;;;;;;;14.27;7.85;;;26.20;70.80;;;;;;5052225;28;20029;-65
2023/06/27 08:22:22;;;;;;;12.10;8.65;;;26.20;70.70;;;;;;5052566;28;20362;-65
2023/06/27 08:24:47;;;;;;;20.02;9.40;;;26.20;70.60;;;;;;5052309;28;20028;-67
2023/06/27 08:27:13;;;;;;;11.57;8.50;;;26.20;70.90;;;;;;5052235;28;20025;-65
2023/06/27 08:29:40;;;;;;;14.63;9.25;;;26.20;71.40;;;;;;5052317;28;20068;-65
2023/06/27 08:32:06;;;;;;;17.40;8.50;;;26.30;71.50;;;;;;5052444;28;20013;-68
2023/06/27 08:34:36;;;;;;;11.45;9.13;;;26.30;70.80;;;;;;5052287;28;20029;-66
2023/06/27 08:37:02;;;;;;;12.63;8.02;;;26.40;70.40;;;;;;5052203;28;20508;-66
2023/06/27 08:39:28;;;;;;;13.77;8.65;;;26.40;70.00;;;;;;5052219;28;20032;-66
2023/06/27 08:41:55;;;;;;;12.63;8.68;;;26.50;70.30;;;;;;5052076;28;20021;-65
2023/06/27 08:44:20;;;;;;;15.75;8.85;;;26.50;70.60;;;;;;5052456;28;20025;-66
2023/06/27 08:46:47;;;;;;;13.23;9.05;;;26.60;70.60;;;;;;5052302;28;20392;-66
2023/06/27 08:49:20;;;;;;;17.83;9.27;;;26.60;71.00;;;;;;5052287;28;20082;-69
2023/06/27 08:51:49;;;;;;;12.98;8.32;;;26.70;70.90;;;;;;5052128;28;20040;-65
2023/06/27 08:54:23;;;;;;;14.43;8.38;;;26.80;71.10;;;;;;5052374;28;20028;-67
2023/06/27 08:56:50;;;;;;;11.27;7.97;;;26.90;70.60;;;;;;5055753;28;20025;-65
2023/06/27 08:59:19;;;;;;;9.57;8.15;;;27.00;70.20;;;;;;5055925;28;20033;-67
2023/06/27 09:01:47;;;;;;;14.30;7.95;;;27.10;70.70;;;;;;5055688;28;20029;-65
2023/06/27 09:04:13;;;;;;;12.07;8.40;;;27.20;70.60;;;;;;5055862;28;20354;-65
2023/06/27 09:06:40;;;;;;;11.77;7.75;;;27.40;69.60;;;;;;5055678;28;20071;-65
2023/06/27 09:09:06;;;;;;;11.38;8.43;;;27.40;69.30;;;;;;5055167;28;20106;-67
2023/06/27 09:11:32;;;;;;;14.35;7.32;;;27.60;69.00;;;;;;5055350;28;20409;-68
2023/06/27 09:13:59;;;;;;;10.00;7.07;;;27.70;68.80;;;;;;5054631;28;20025;-69
2023/06/27 09:16:25;;;;;;;10.00;7.38;;;27.80;67.60;;;;;;5054920;28;20104;-72
2023/06/27 09:18:51;;;;;;;11.15;7.40;;;27.90;66.90;;;;;;5054679;28;20063;-79
2023/06/27 09:21:19;;;;;;;14.75;7.88;;;28.00;66.70;;;;;;5054219;28;20076;-67
2023/06/27 09:23:46;;;;;;;11.70;7.32;;;28.10;66.30;;;;;;5055207;28;20481;-68
2023/06/27 09:26:13;;;;;;;11.75;7.25;;;28.20;66.30;;;;;;5055318;28;20017;-71
2023/06/27 09:28:49;;;;;;;9.43;7.65;;;28.30;66.00;;;;;;5053592;28;20037;-69
2023/06/27 09:31:19;;;;;;;14.20;7.13;;;28.30;65.90;;;;;;5054529;28;20110;-68
2023/06/27 09:33:47;;;;;;;13.75;6.63;;;28.40;65.70;;;;;;5054870;28;20024;-72
2023/06/27 09:36:39;;;;;;;12.95;6.35;;;28.50;64.60;;;;;;5054787;28;20049;-67
2023/06/27 09:39:08;;;;;;;11.43;6.78;;;28.60;63.30;;;;;;5055087;28;20408;-69
2023/06/27 09:41:50;;;;;;;13.70;7.00;;;28.60;63.30;;;;;;5054519;28;20055;-65
2023/06/27 09:44:24;;;;;;;11.65;7.32;;;28.60;63.20;;;;;;5054406;28;20492;-68
2023/06/27 09:46:54;;;;;;;11.95;7.18;;;28.60;63.60;;;;;;5054731;28;20094;-68
2023/06/27 09:49:22;;;;;;;10.38;6.90;;;28.60;63.20;;;;;;5054592;28;20563;-68
2023/06/27 09:51:53;;;;;;;16.15;7.20;;;28.60;63.30;;;;;;5054548;28;20495;-68
2023/06/27 09:54:22;;;;;;;8.48;6.43;;;28.60;63.50;;;;;;5055077;28;20413;-68
2023/06/27 09:56:51;;;;;;;8.20;6.78;;;28.60;63.30;;;;;;5054626;28;20512;-67
2023/06/27 09:59:19;;;;;;;13.57;6.28;;;28.60;62.50;;;;;;5053501;28;20021;-68
2023/06/27 10:01:45;;;;;;;8.18;6.15;;;28.60;61.60;;;;;;5054712;28;20057;-68
2023/06/27 10:04:11;;;;;;;8.88;5.97;;;28.60;61.10;;;;;;5054339;28;20122;-69
2023/06/27 10:06:37;;;;;;;6.90;5.47;;;28.50;59.90;;;;;;5053385;28;20125;-68
2023/06/27 10:09:03;;;;;;;10.30;5.90;;;28.60;59.70;;;;;;5054323;28;20056;-68
2023/06/27 10:11:29;;;;;;;6.85;5.72;;;28.50;59.80;;;;;;5054403;28;20025;-66
2023/06/27 10:13:55;;;;;;;10.60;5.50;;;28.50;59.70;;;;;;5054259;28;20108;-68
2023/06/27 10:16:20;;;;;;;6.72;5.20;;;28.60;58.80;;;;;;5054014;28;20538;-66
2023/06/27 10:18:49;;;;;;;11.52;5.45;;;28.50;58.70;;;;;;5054125;28;20043;-67
2023/06/27 10:21:16;;;;;;;7.95;5.50;;;28.60;60.10;;;;;;5054123;28;20029;-73
2023/06/27 10:23:45;;;;;;;12.15;5.30;;;28.60;59.60;;;;;;5053981;28;20033;-70
2023/06/27 10:26:11;;;;;;;10.80;5.68;;;28.70;59.00;;;;;;5053650;28;20028;-73
2023/06/27 10:28:37;;;;;;;17.00;5.93;;;28.70;60.00;;;;;;5053418;28;20111;-75
2023/06/27 10:31:05;;;;;;;6.88;5.38;;;28.80;59.20;;;;;;5053785;28;20021;-72
2023/06/27 10:33:32;;;;;;;9.27;5.63;;;28.80;59.20;;;;;;5053805;28;20029;-75
2023/06/27 10:36:09;;;;;;;8.77;5.75;;;28.80;58.20;;;;;;5054035;28;20048;-73
2023/06/27 10:38:37;;;;;;;9.50;6.10;;;28.80;58.20;;;;;;5052852;28;20051;-74
2023/06/27 10:41:20;;;;;;;9.73;6.13;;;28.80;59.50;;;;;;5053693;28;20066;-73
2023/06/27 10:43:46;;;;;;;13.35;6.32;;;28.90;59.90;;;;;;5053150;28;20059;-73
2023/06/27 10:46:26;;;;;;;7.55;5.63;;;28.90;60.10;;;;;;5053282;28;20029;-73
2023/06/27 10:48:55;;;;;;;8.43;6.20;;;28.80;60.40;;;;;;5053528;28;20025;-72
2023/06/27 10:51:22;;;;;;;10.52;5.75;;;28.80;61.10;;;;;;5053666;28;20082;-69
2023/06/27 10:54:07;;;;;;;12.50;6.15;;;28.80;61.00;;;;;;5053066;28;20489;-69
2023/06/27 10:56:34;;;;;;;11.73;6.47;;;28.90;61.20;;;;;;5052685;28;20025;-69
2023/06/27 10:59:02;;;;;;;11.45;6.45;;;28.90;61.70;;;;;;5053000;28;20056;-70
2023/06/27 11:01:30;;;;;;;17.35;6.35;;;28.90;61.00;;;;;;5053085;28;20025;-69
2023/06/27 11:03:59;;;;;;;11.63;5.90;;;28.90;61.00;;;;;;5053029;28;20029;-68
2023/06/27 11:06:41;;;;;;;13.45;6.68;;;28.90;61.00;;;;;;5053275;28;20408;-68
2023/06/27 11:09:10;;;;;;;13.18;6.72;;;28.90;61.10;;;;;;5053061;28;20075;-69
2023/06/27 11:11:36;;;;;;;12.02;6.43;;;28.80;60.70;;;;;;5051842;28;20021;-69
2023/06/27 11:14:08;;;;;;;11.07;5.68;;;28.90;59.60;;;;;;5053381;28;20032;-73
2023/06/27 11:16:35;;;;;;;8.48;5.80;;;28.80;59.40;;;;;;5051544;28;20036;-74
2023/06/27 11:19:03;;;;;;;15.52;6.60;;;28.90;60.40;;;;;;5051792;28;20029;-74
2023/06/27 11:21:31;;;;;;;15.10;6.53;;;28.90;61.40;;;;;;5053220;28;20480;-72
2023/06/27 11:24:00;;;;;;;17.10;6.32;;;29.00;60.30;;;;;;5052981;28;20028;-75
2023/06/27 11:26:27;;;;;;;13.65;6.30;;;29.10;61.00;;;;;;5053050;28;20021;-73
2023/06/27 11:28:53;;;;;;;11.32;5.95;;;29.10;59.80;;;;;;5052964;28;20033;-74
2023/06/27 11:31:19;;;;;;;11.38;6.07;;;29.20;60.00;;;;;;5053076;28;20419;-75
2023/06/27 11:33:45;;;;;;;13.93;6.32;;;29.20;60.00;;;;;;5052534;28;20083;-74
2023/06/27 11:36:11;;;;;;;13.55;6.07;;;29.20;59.60;;;;;;5052755;28;20063;-73
2023/06/27 11:38:37;;;;;;;10.00;6.03;;;29.30;59.70;;;;;;5052761;28;20025;-76
2023/06/27 11:41:04;;;;;;;13.65;6.65;;;29.40;59.70;;;;;;5052964;28;20036;-74
2023/06/27 11:43:30;;;;;;;15.60;6.32;;;29.40;60.00;;;;;;5052495;28;20025;-73
2023/06/27 11:45:57;;;;;;;12.70;5.40;;;29.50;60.40;;;;;;5052244;28;20086;-73
2023/06/27 11:48:23;;;;;;;11.65;5.80;;;29.60;60.20;;;;;;5050968;28;20028;-74
2023/06/27 11:51:07;;;;;;;11.98;6.25;;;29.70;59.80;;;;;;5051798;28;20095;-73
2023/06/27 11:53:35;;;;;;;8.65;5.82;;;29.80;59.80;;;;;;5048451;28;20024;-74
2023/06/27 11:56:02;;;;;;;8.48;5.82;;;29.70;61.00;;;;;;5052212;28;20021;-70
2023/06/27 11:58:32;;;;;;;12.23;6.00;;;29.80;59.60;;;;;;5052059;28;20021;-71
2023/06/27 12:00:59;;;;;;;13.43;6.20;;;29.80;58.70;;;;;;5049323;28;20497;-68
2023/06/27 12:03:30;;;;;;;12.38;5.53;;;29.80;57.30;;;;;;5049302;28;20029;-69
2023/06/27 12:05:57;;;;;;;12.50;6.15;;;29.70;57.70;;;;;;5048992;28;20021;-70
2023/06/27 12:08:33;;;;;;;10.98;6.35;;;29.60;58.90;;;;;;5052367;28;20350;-69
2023/06/27 12:11:02;;;;;;;10.00;6.05;;;29.60;59.50;;;;;;5052353;28;20061;-69
2023/06/27 12:13:37;;;;;;;7.97;5.82;;;29.60;59.80;;;;;;5052388;28;20363;-69
2023/06/27 12:16:04;;;;;;;8.05;5.43;;;29.60;59.00;;;;;;5049971;28;20127;-70
2023/06/27 12:18:31;;;;;;;8.85;5.68;;;29.60;58.60;;;;;;5049759;28;20029;-70
2023/06/27 12:20:58;;;;;;;12.27;5.70;;;29.50;58.10;;;;;;5049851;28;20082;-71
2023/06/27 12:23:28;;;;;;;8.98;5.90;;;29.50;57.20;;;;;;5052202;28;20021;-70
2023/06/27 12:25:54;;;;;;;11.43;6.43;;;29.50;57.80;;;;;;5052394;28;20032;-69
2023/06/27 12:28:21;;;;;;;13.70;6.05;;;29.40;58.10;;;;;;5052489;28;20033;-69
2023/06/27 12:30:47;;;;;;;8.50;6.13;;;29.40;57.90;;;;;;5054833;28;20045;-69
2023/06/27 12:33:13;;;;;;;8.13;5.78;;;29.30;57.60;;;;;;5056204;28;20103;-69
2023/06/27 12:35:39;;;;;;;10.00;5.95;;;29.30;57.60;;;;;;5056114;28;20036;-70
2023/06/27 12:38:05;;;;;;;11.95;5.80;;;29.30;57.70;;;;;;5055772;28;20495;-71